createdAt,value
2018-08-22T11:26:47.618Z,36.60
2018-08-22T11:29:26.963Z,36.60
2018-08-22T11:32:06.382Z,37.00
2018-08-22T11:34:44.318Z,37.40
2018-08-22T11:37:13.548Z,37.50
2018-08-22T11:39:43.203Z,37.60
2018-08-22T11:42:11.316Z,38.10
2018-08-22T11:44:39.449Z,38.80
2018-08-22T11:47:07.559Z,39.30
2018-08-22T11:49:35.699Z,39.60
2018-08-22T11:52:03.827Z,39.70
2018-08-22T11:54:32.831Z,39.90
2018-08-22T11:57:01.513Z,40.30
2018-08-22T11:59:29.771Z,40.90
2018-08-22T12:01:57.988Z,41.50
2018-08-22T12:04:26.015Z,41.80
2018-08-22T12:06:54.143Z,42.00
2018-08-22T12:09:22.292Z,42.20
2018-08-22T12:11:50.437Z,42.30
2018-08-22T12:14:18.579Z,42.10
2018-08-22T12:16:46.718Z,41.70
2018-08-22T12:19:14.829Z,41.20
2018-08-22T12:21:43.019Z,40.90
2018-08-22T12:24:11.156Z,40.50
2018-08-22T12:26:39.541Z,39.80
2018-08-22T12:29:07.649Z,39.40
2018-08-22T12:31:36.342Z,39.10
2018-08-22T12:34:04.498Z,38.70
2018-08-22T12:36:32.618Z,38.20
2018-08-22T12:39:00.753Z,37.70
2018-08-22T12:41:28.866Z,36.90
2018-08-22T12:43:57.032Z,36.90
2018-08-22T12:46:25.135Z,36.70
2018-08-22T12:48:53.425Z,36.60
2018-08-22T12:51:22.252Z,36.40
2018-08-22T12:53:50.421Z,36.30
2018-08-22T12:56:18.540Z,36.50
2018-08-22T12:58:46.654Z,36.60
2018-08-22T13:01:14.782Z,36.50
2018-08-22T13:03:42.896Z,36.50
2018-08-22T13:06:11.021Z,36.40
2018-08-22T13:08:39.149Z,36.30
2018-08-22T13:11:07.308Z,36.20
2018-08-22T13:13:35.404Z,36.00
2018-08-22T13:16:03.516Z,35.90
2018-08-22T13:18:31.639Z,35.90
2018-08-22T13:20:59.765Z,36.20
2018-08-22T13:23:27.902Z,36.40
2018-08-22T13:25:56.033Z,36.40
2018-08-22T13:28:24.182Z,36.30
2018-08-22T13:30:52.313Z,36.20
2018-08-22T13:33:20.552Z,36.20
2018-08-22T13:35:48.669Z,36.20
2018-08-22T13:38:16.798Z,36.20
2018-08-22T13:40:44.925Z,36.10
2018-08-22T13:43:13.096Z,36.00
2018-08-22T13:45:41.218Z,35.80
2018-08-22T13:48:09.337Z,35.70
2018-08-22T13:50:37.448Z,35.60
2018-08-22T13:53:05.601Z,35.40
2018-08-22T13:55:33.712Z,35.50
2018-08-22T13:58:01.889Z,35.40
2018-08-22T14:00:30.038Z,35.30
2018-08-22T14:02:58.739Z,35.30
2018-08-22T14:05:26.832Z,35.30
2018-08-22T14:07:54.992Z,35.40
2018-08-22T14:10:23.105Z,35.50
2018-08-22T14:12:51.266Z,35.70
2018-08-22T14:15:19.389Z,35.70
2018-08-22T14:17:47.505Z,35.70
2018-08-22T14:20:15.641Z,35.60
2018-08-22T14:22:43.770Z,35.40
2018-08-22T14:25:11.913Z,35.40
2018-08-22T14:27:40.033Z,35.40
2018-08-22T14:30:08.247Z,35.40
2018-08-22T14:32:36.380Z,35.30
2018-08-22T14:35:04.510Z,35.10
2018-08-22T14:37:32.620Z,35.10
2018-08-22T14:40:00.733Z,35.20
2018-08-22T14:42:28.853Z,35.20
2018-08-22T14:44:57.088Z,35.20
2018-08-22T14:47:25.132Z,35.10
2018-08-22T14:54:49.056Z,35.10
2018-08-22T14:57:17.185Z,35.20
2018-08-22T14:59:45.295Z,35.20
2018-08-22T15:02:13.453Z,35.30
2018-08-22T15:04:41.541Z,35.30
2018-08-22T15:07:09.662Z,35.20
2018-08-22T15:09:38.029Z,35.10
2018-08-22T15:12:06.147Z,35.10
2018-08-22T15:14:34.266Z,35.00
2018-08-22T15:17:02.406Z,35.00
2018-08-22T15:19:30.516Z,35.00
2018-08-22T15:21:58.632Z,35.00
2018-08-22T15:24:26.766Z,35.00
2018-08-22T15:26:54.873Z,35.00
2018-08-22T15:29:23.885Z,35.00
2018-08-22T15:31:52.025Z,35.10
2018-08-22T15:34:20.135Z,35.10
2018-08-22T15:36:48.326Z,35.20
2018-08-22T15:39:16.448Z,35.10
2018-08-22T15:41:44.595Z,35.00
2018-08-22T15:44:12.701Z,35.00
2018-08-22T15:46:41.476Z,35.00
2018-08-22T15:49:09.624Z,35.00
2018-08-22T15:51:37.777Z,34.90
2018-08-22T15:54:09.220Z,34.90
2018-08-22T15:56:38.664Z,34.80
2018-08-22T15:59:07.121Z,34.70
2018-08-22T16:01:35.257Z,34.70
2018-08-22T16:04:03.362Z,34.60
2018-08-22T16:06:31.525Z,34.70
2018-08-22T16:08:59.675Z,34.60
2018-08-22T16:11:27.780Z,34.60
2018-08-22T16:13:55.908Z,34.60
2018-08-22T16:16:24.031Z,34.60
2018-08-22T16:18:52.148Z,34.60
2018-08-22T16:21:20.268Z,34.50
2018-08-22T16:23:48.430Z,34.40
2018-08-22T16:26:16.640Z,34.40
2018-08-22T16:28:51.176Z,34.40
2018-08-22T16:31:19.490Z,34.40
2018-08-22T16:33:47.610Z,34.30
2018-08-22T16:36:20.871Z,34.20
2018-08-22T16:38:49.004Z,34.20
2018-08-22T16:41:17.576Z,34.10
2018-08-22T16:43:48.239Z,34.10
2018-08-22T16:46:16.639Z,34.10
2018-08-22T16:48:48.207Z,34.00
2018-08-22T16:51:17.429Z,34.00
2018-08-22T16:53:59.709Z,33.90
2018-08-22T16:56:28.540Z,33.80
2018-08-22T16:59:01.914Z,33.60
2018-08-22T17:01:30.737Z,33.60
2018-08-22T17:03:58.849Z,33.50
2018-08-22T17:06:28.088Z,33.50
2018-08-22T17:08:56.760Z,33.40
2018-08-22T17:11:24.891Z,33.40
2018-08-22T17:13:53.477Z,33.40
2018-08-22T17:16:22.416Z,33.40
2018-08-22T17:18:50.612Z,33.40
2018-08-22T17:21:18.765Z,33.40
2018-08-22T17:23:47.237Z,33.40
2018-08-22T17:26:18.372Z,33.40
2018-08-22T17:28:50.472Z,33.30
2018-08-22T17:31:19.370Z,33.30
2018-08-22T17:33:49.120Z,33.30
2018-08-22T17:36:17.300Z,33.30
2018-08-22T17:38:48.698Z,33.20
2018-08-22T17:41:17.536Z,33.20
2018-08-22T17:44:19.076Z,33.10
2018-08-22T17:46:49.944Z,33.10
2018-08-22T17:49:18.064Z,33.00
2018-08-22T17:51:57.254Z,33.00
2018-08-22T17:54:25.753Z,33.00
2018-08-22T17:57:05.449Z,32.90
2018-08-22T17:59:33.581Z,32.90
2018-08-22T18:02:01.704Z,32.90
2018-08-22T18:04:44.861Z,32.80
2018-08-22T18:07:13.161Z,32.70
2018-08-22T18:09:41.360Z,32.70
2018-08-22T18:12:09.496Z,32.50
2018-08-22T18:14:37.733Z,32.50
2018-08-22T18:17:06.225Z,32.40
2018-08-22T18:19:35.691Z,32.30
2018-08-22T18:22:03.869Z,32.10
2018-08-22T18:24:32.064Z,32.10
2018-08-22T18:27:01.958Z,32.10
2018-08-22T18:29:30.129Z,32.00
2018-08-22T18:31:58.233Z,31.90
2018-08-22T18:34:26.415Z,31.80
2018-08-22T18:36:54.513Z,31.70
2018-08-22T18:39:22.634Z,31.60
2018-08-22T18:41:50.796Z,31.40
2018-08-22T18:44:18.925Z,31.30
2018-08-22T18:46:47.104Z,31.20
2018-08-22T18:49:15.336Z,31.10
2018-08-22T18:51:43.603Z,31.10
2018-08-22T18:54:11.730Z,31.10
2018-08-22T18:56:39.881Z,31.00
2018-08-22T18:59:19.453Z,31.00
2018-08-22T19:01:47.572Z,30.90
2018-08-22T19:04:15.744Z,30.80
2018-08-22T19:06:43.928Z,30.70
2018-08-22T19:09:12.186Z,30.60
2018-08-22T19:11:40.399Z,30.40
2018-08-22T19:14:08.821Z,30.40
2018-08-22T19:16:38.332Z,30.40
2018-08-22T19:19:06.699Z,30.30
2018-08-22T19:21:34.905Z,30.20
2018-08-22T19:24:03.998Z,30.00
2018-08-22T19:26:33.789Z,29.90
2018-08-22T19:29:03.536Z,29.90
2018-08-22T19:31:31.726Z,29.80
2018-08-22T19:34:01.016Z,29.70
2018-08-22T19:36:30.609Z,29.70
2018-08-22T19:38:58.861Z,29.60
2018-08-22T19:41:31.245Z,29.40
2018-08-22T19:43:59.548Z,29.40
2018-08-22T19:46:27.715Z,29.30
2018-08-22T19:48:55.943Z,29.30
2018-08-22T19:51:24.085Z,29.20
2018-08-22T19:54:01.354Z,29.00
2018-08-22T19:56:30.799Z,29.00
2018-08-22T19:58:59.096Z,28.90
2018-08-22T20:01:30.335Z,28.70
2018-08-22T20:03:58.720Z,28.60
2018-08-22T20:06:27.185Z,28.50
2018-08-22T20:08:57.149Z,28.40
2018-08-22T20:11:25.708Z,28.40
2018-08-22T20:13:58.361Z,28.20
2018-08-22T20:18:55.573Z,28.10
2018-08-22T20:21:29.794Z,28.00
2018-08-22T20:23:58.083Z,27.90
2018-08-22T20:26:26.834Z,27.80
2018-08-22T20:28:57.421Z,27.80
2018-08-22T20:31:25.553Z,27.80
2018-08-22T20:33:59.552Z,27.50
2018-08-22T20:38:57.683Z,27.40
2018-08-22T20:41:27.317Z,27.40
2018-08-22T20:43:55.473Z,27.50
2018-08-22T20:46:23.637Z,27.50
2018-08-22T20:48:52.286Z,27.50
2018-08-22T20:51:20.472Z,27.60
2018-08-22T20:53:52.869Z,27.60
2018-08-22T20:56:22.052Z,27.60
2018-08-22T20:58:50.257Z,27.70
2018-08-22T21:01:18.643Z,27.70
2018-08-22T21:03:47.596Z,27.70
2018-08-22T21:06:15.730Z,27.70
2018-08-22T21:08:43.900Z,27.80
2018-08-22T21:11:12.015Z,27.70
2018-08-22T21:13:40.278Z,27.70
2018-08-22T21:16:08.356Z,27.60
2018-08-22T21:18:36.565Z,27.60
2018-08-22T21:21:04.700Z,27.60
2018-08-22T21:23:32.842Z,27.40
2018-08-22T21:26:01.238Z,27.40
2018-08-22T21:28:33.096Z,27.30
2018-08-22T21:31:01.533Z,27.30
2018-08-22T21:33:30.547Z,27.20
2018-08-22T21:35:58.772Z,27.20
2018-08-22T21:38:26.913Z,27.10
2018-08-22T21:40:55.049Z,27.10
2018-08-22T21:43:23.601Z,27.00
2018-08-22T21:45:52.152Z,26.90
2018-08-22T21:48:22.908Z,26.90
2018-08-22T21:50:51.029Z,26.90
2018-08-22T21:53:19.252Z,26.90
2018-08-22T21:55:48.830Z,26.70
2018-08-22T21:58:16.961Z,26.80
2018-08-22T22:00:45.093Z,26.60
2018-08-22T22:03:14.816Z,26.70
2018-08-22T22:05:49.747Z,26.60
2018-08-22T22:08:17.944Z,26.50
2018-08-22T22:10:47.778Z,26.50
2018-08-22T22:13:17.352Z,26.40
2018-08-22T22:15:46.658Z,26.50
2018-08-22T22:18:14.819Z,26.40
2018-08-22T22:20:45.597Z,26.20
2018-08-22T22:23:13.939Z,26.20
2018-08-22T22:25:42.444Z,26.10
2018-08-22T22:28:10.651Z,26.00
2018-08-22T22:30:38.807Z,26.00
2018-08-22T22:33:06.920Z,25.90
2018-08-22T22:35:37.781Z,25.90
2018-08-22T22:38:08.581Z,25.90
2018-08-22T22:40:36.997Z,25.70
2018-08-22T22:43:08.319Z,25.80
2018-08-22T22:45:37.235Z,25.70
2018-08-22T22:48:05.499Z,25.70
2018-08-22T22:50:33.671Z,25.60
2018-08-22T22:53:01.962Z,25.60
2018-08-22T22:55:30.400Z,25.60
2018-08-22T22:57:58.546Z,25.50
2018-08-22T23:00:29.088Z,25.50
2018-08-22T23:03:02.863Z,25.40
2018-08-22T23:05:31.520Z,25.40
2018-08-22T23:08:01.168Z,25.30
2018-08-22T23:10:29.584Z,25.30
2018-08-22T23:12:57.722Z,25.20
2018-08-22T23:15:29.232Z,25.20
2018-08-22T23:18:02.592Z,25.10
2018-08-22T23:20:32.578Z,25.00
2018-08-22T23:23:00.738Z,25.00
2018-08-22T23:25:29.292Z,24.90
2018-08-22T23:27:57.745Z,24.90
2018-08-22T23:30:35.079Z,24.80
2018-08-22T23:33:04.504Z,24.80
2018-08-22T23:35:33.768Z,24.80
2018-08-22T23:38:06.048Z,24.70
2018-08-22T23:40:35.038Z,24.50
2018-08-22T23:43:03.192Z,24.40
2018-08-22T23:45:31.437Z,24.20
2018-08-22T23:47:59.579Z,24.20
2018-08-22T23:50:42.262Z,24.20
2018-08-22T23:53:10.713Z,24.10
2018-08-22T23:55:38.868Z,24.10
2018-08-22T23:58:09.045Z,24.10
